Aérodrome :
LOGIN :

S'inscrire | Disclaimer

   EN    FR    IT 

 










Légende :    VFR   VFR Marginal   IFR   IFR Intensif   IFR Très Intensif
Visi : 
Plafond : 
>= 8 km
>= 3000ft
5 à 8 km
1000 à 3000 ft
1500m à 5 km
500 à 1000 ft
800 à 1500m
200 à 500 ft
< 800m
< 200 ft
Symboles :   Orages  Brouillard  Fortes neiges  Fortes précipitations  Vent > 20 kt
SIGMETs :   Divers  Orages  Givrage  Turbulence  Onde Orograph.  Cendres Volcan.






- Altitude de l'aérodrome : 273 ft


EGXT - RAF Wittering Stamford

DERNIER METAR :
  • 010950Z 07006KT 0150 FG VV/// 02/02 Q1033 RMK RED

METARs EXPIRÉS :
  • 010850Z 08006KT 0150 FG VV/// 02/02 Q1033 RMK RED
  • 010750Z 07006KT 0100 FG VV/// 02/02 Q1033 RMK RED
  • 010650Z 08006KT 0100 FG VV/// 02/02 Q1033 RMK RED

TAF TAF EGXT
Valide du 01 à 09h jusqu'au 01 à 18h UTC


010724Z 0109/0118 07005KT 0200 FG OVC000
BECMG 0110/0113 4000 BR OVC003
BECMG 0113/0115 9999 NSW OVC010



MET'MAP, la Météo Aéronautique d'un coup d'oeil ! - Copyright ORBIFLY Décembre 2007 - Disclaimer

ORBIFLY MET'MAP TEAM :

Programmation & Développement : Alexandra Zaïnal
Sur une idée originale de : Baudouin d'Aumeries
Assistance à la programmation : Marc-Olivier Méhu
Soutien technique & logistique : Manuel Goepfert

Contact : metmap@orbifly.com




SOURCES & CREDITS :

   NOAA